Time;durP1;ratioP1;P1;durP2;ratioP2;P2;SDS_P1;SDS_P2;PMS_P1;PMS_P2;Temp;Humidity;BMP_temperature;BMP_pressure;BME280_temperature;BME280_humidity;BME280_pressure;Samples;Min_cycle;Max_cycle;Signal;HPM_P1;HPM_P2
2021/12/17 00:07:14;;;;;;;17.90;10.67;;;;;;;2.73;100.00;97189.22;4995181;28;20183;-59
2021/12/17 00:09:42;;;;;;;14.93;10.53;;;;;;;2.75;100.00;97200.53;4977907;28;20197;-59
2021/12/17 00:12:11;;;;;;;13.83;9.57;;;;;;;2.73;100.00;97201.94;4977905;28;20230;-59
2021/12/17 00:14:38;;;;;;;18.10;12.10;;;;;;;2.74;100.00;97200.81;4977889;28;20219;-59
2021/12/17 00:17:08;;;;;;;14.33;9.67;;;;;;;2.75;100.00;97192.44;4977778;28;20195;-59
2021/12/17 00:49:22;;;;;;;14.80;9.90;;;;;;;2.48;100.00;97195.25;4995146;28;20222;-51
2021/12/17 00:54:29;;;;;;;13.90;9.43;;;;;;;2.49;100.00;97196.88;4994816;28;20211;-52
2021/12/17 00:56:56;;;;;;;16.87;11.20;;;;;;;2.53;100.00;97203.22;4977574;28;20270;-55
2021/12/17 00:59:22;;;;;;;17.03;10.20;;;;;;;2.47;100.00;97209.84;4977187;28;20212;-57
2021/12/17 01:01:50;;;;;;;14.33;9.73;;;;;;;2.45;100.00;97203.16;4977530;28;20186;-56
2021/12/17 01:04:15;;;;;;;16.33;9.93;;;;;;;2.45;100.00;97206.66;4977552;28;20202;-56
2021/12/17 01:06:41;;;;;;;18.10;10.17;;;;;;;2.43;100.00;97208.88;4977562;28;20274;-56
2021/12/17 01:09:10;;;;;;;15.67;10.20;;;;;;;2.43;100.00;97219.66;4977139;28;20194;-55
2021/12/17 01:11:36;;;;;;;16.07;9.63;;;;;;;2.41;100.00;97213.75;4977067;28;20253;-55
2021/12/17 01:14:03;;;;;;;14.40;9.90;;;;;;;2.42;100.00;97201.88;4977048;28;20192;-54
2021/12/17 01:16:29;;;;;;;14.60;9.70;;;;;;;2.45;100.00;97201.25;4977366;28;20527;-54
2021/12/17 01:38:07;;;;;;;14.87;10.30;;;;;;;2.61;100.00;97177.41;4998526;28;20241;-63
2021/12/17 01:43:14;;;;;;;14.67;9.33;;;;;;;2.68;100.00;97172.38;4998214;28;20195;-63
2021/12/17 01:45:41;;;;;;;14.73;8.90;;;;;;;2.68;100.00;97162.41;4980577;28;20223;-63
2021/12/17 01:48:14;;;;;;;12.07;8.87;;;;;;;2.70;100.00;97149.41;4981011;28;20237;-63
2021/12/17 02:01:17;;;;;;;14.37;8.83;;;;;;;2.76;100.00;97164.34;4998180;28;20539;-59
2021/12/17 02:03:43;;;;;;;14.83;9.30;;;;;;;2.76;100.00;97158.97;4980381;28;20194;-59
2021/12/17 02:06:08;;;;;;;14.30;9.43;;;;;;;2.77;100.00;97159.75;4980253;28;20563;-59
2021/12/17 02:08:34;;;;;;;12.83;9.03;;;;;;;2.77;100.00;97162.47;4980301;28;20199;-60
2021/12/17 02:32:36;;;;;;;13.50;9.13;;;;;;;3.06;100.00;97125.75;4997421;28;20281;-59
2021/12/17 02:37:51;;;;;;;12.43;9.23;;;;;;;3.00;100.00;97132.41;4996907;28;20219;-58
2021/12/17 02:45:34;;;;;;;12.60;8.40;;;;;;;3.00;100.00;97132.41;4996748;28;20234;-59
2021/12/17 02:48:04;;;;;;;17.13;9.17;;;;;;;3.02;100.00;97119.41;4979615;28;20202;-50
2021/12/17 02:50:30;;;;;;;13.23;9.40;;;;;;;3.03;100.00;97112.88;4979514;28;20219;-60
2021/12/17 02:52:58;;;;;;;15.00;9.40;;;;;;;3.05;100.00;97118.78;4979923;28;20218;-59
2021/12/17 02:55:24;;;;;;;14.40;9.83;;;;;;;3.05;100.00;97113.38;4980265;28;20330;-60
2021/12/17 02:57:50;;;;;;;15.03;9.23;;;;;;;3.06;100.00;97112.25;4979383;28;20215;-59
2021/12/17 03:00:17;;;;;;;13.17;8.87;;;;;;;3.10;100.00;97126.72;4979357;28;20188;-59
2021/12/17 03:02:44;;;;;;;13.30;8.23;;;;;;;3.13;100.00;97120.69;4979561;28;20196;-59
2021/12/17 03:05:10;;;;;;;12.47;8.73;;;;;;;3.13;100.00;97120.69;4979699;28;20211;-53
2021/12/17 03:07:40;;;;;;;13.47;8.80;;;;;;;3.15;100.00;97123.09;4979286;28;20550;-63
2021/12/17 03:10:09;;;;;;;11.27;8.77;;;;;;;3.14;100.00;97124.97;4978931;28;20346;-62
2021/12/17 03:15:15;;;;;;;11.90;8.33;;;;;;;3.12;100.00;97121.81;4996579;28;20188;-62
2021/12/17 03:23:48;;;;;;;13.93;9.27;;;;;;;3.17;100.00;97127.06;4996856;28;20242;-58
2021/12/17 03:25:49;;;;;;;12.47;8.73;;;;;;;3.21;100.00;97128.03;4988751;28;20203;-54
2021/12/17 03:28:15;;;;;;;11.60;8.40;;;;;;;3.23;100.00;97133.91;4978813;28;20188;-60
2021/12/17 03:30:40;;;;;;;12.40;8.80;;;;;;;3.23;100.00;97120.41;4978648;28;20223;-60
2021/12/17 03:33:05;;;;;;;11.87;8.60;;;;;;;3.25;100.00;97122.81;4978675;28;20199;-60
2021/12/17 03:35:31;;;;;;;12.73;8.20;;;;;;;3.23;100.00;97131.22;4979473;28;20212;-61
2021/12/17 03:37:56;;;;;;;12.40;8.43;;;;;;;3.23;100.00;97136.63;4978708;28;20212;-60
2021/12/17 03:40:22;;;;;;;11.77;8.40;;;;;;;3.26;100.00;97136.00;4978351;28;20674;-60
2021/12/17 03:42:50;;;;;;;12.17;8.83;;;;;;;3.25;100.00;97137.09;4978273;28;20653;-60
2021/12/17 03:45:17;;;;;;;11.93;7.97;;;;;;;3.28;100.00;97133.75;4978707;28;20251;-63
2021/12/17 03:47:43;;;;;;;13.93;8.70;;;;;;;3.29;100.00;97127.25;4978804;28;20285;-63
2021/12/17 03:50:09;;;;;;;12.00;8.70;;;;;;;3.33;100.00;97125.53;4978210;28;20204;-63
2021/12/17 03:52:34;;;;;;;12.97;9.07;;;;;;;3.37;100.00;97134.59;4978611;28;20214;-63
2021/12/17 03:55:00;;;;;;;14.10;9.40;;;;;;;3.37;100.00;97129.19;4979095;28;20180;-63
2021/12/17 03:57:25;;;;;;;13.40;8.60;;;;;;;3.37;100.00;97137.28;4978341;28;20191;-63
2021/12/17 03:59:51;;;;;;;13.07;8.90;;;;;;;3.39;100.00;97134.28;4978309;28;20238;-59
2021/12/17 04:02:17;;;;;;;11.50;8.53;;;;;;;3.36;100.00;97132.97;4978110;28;20195;-48
2021/12/17 04:04:43;;;;;;;12.43;8.63;;;;;;;3.39;100.00;97135.06;4978260;28;20202;-63
2021/12/17 04:07:08;;;;;;;12.33;9.10;;;;;;;3.44;100.00;97131.44;4978186;28;20275;-63
2021/12/17 04:09:34;;;;;;;16.67;11.70;;;;;;;3.44;100.00;97118.72;4978146;28;20258;-62
2021/12/17 04:12:05;;;;;;;14.97;10.40;;;;;;;3.42;100.00;97118.25;4977759;28;20216;-63
2021/12/17 04:14:41;;;;;;;16.30;9.53;;;;;;;3.43;100.00;97113.66;4977791;28;20200;-63
2021/12/17 04:17:07;;;;;;;14.33;9.03;;;;;;;3.42;100.00;97118.25;4977989;28;20202;-62
2021/12/17 04:19:34;;;;;;;13.93;9.53;;;;;;;3.41;100.00;97122.06;4977786;28;20192;-60
2021/12/17 04:22:00;;;;;;;14.97;10.47;;;;;;;3.39;100.00;97118.09;4978321;28;20172;-56
2021/12/17 04:24:26;;;;;;;15.37;10.03;;;;;;;3.42;100.00;97106.63;4977538;28;20199;-54
2021/12/17 04:26:52;;;;;;;16.10;10.43;;;;;;;3.42;100.00;97091.25;4977667;28;20199;-56
2021/12/17 04:29:18;;;;;;;15.83;11.13;;;;;;;3.47;100.00;97088.38;4977867;28;20245;-55
2021/12/17 04:31:50;;;;;;;12.77;8.83;;;;;;;3.48;100.00;97078.38;4977633;28;20285;-55
2021/12/17 04:34:17;;;;;;;13.20;9.27;;;;;;;3.47;100.00;97088.38;4995255;28;20176;-55
2021/12/17 04:36:42;;;;;;;12.33;8.87;;;;;;;3.44;100.00;97089.03;4977435;28;20646;-62
2021/12/17 04:39:07;;;;;;;14.17;9.00;;;;;;;3.43;100.00;97087.41;4977917;28;20191;-53
2021/12/17 04:41:46;;;;;;;13.77;9.93;;;;;;;3.46;100.00;97092.19;4977304;28;20194;-58
2021/12/17 04:46:54;;;;;;;12.73;8.90;;;;;;;3.43;100.00;97092.03;4994946;28;20175;-58
2021/12/17 04:57:35;;;;;;;11.30;8.17;;;;;;;3.37;100.00;97088.69;4995144;28;20254;-54
2021/12/17 05:00:16;;;;;;;11.97;8.30;;;;;;;3.37;100.00;97079.81;4977373;28;20247;-65
2021/12/17 05:02:45;;;;;;;11.10;7.83;;;;;;;3.35;100.00;97099.00;4976863;28;20242;-65
2021/12/17 05:05:11;;;;;;;13.33;8.20;;;;;;;3.34;100.00;97083.94;4977509;28;20206;-65
2021/12/17 05:07:42;;;;;;;10.37;7.80;;;;;;;3.32;100.00;97078.03;4977828;28;20298;-65
2021/12/17 05:18:22;;;;;;;11.73;8.40;;;;;;;3.26;100.00;97065.81;4994859;28;20255;-56
2021/12/17 05:20:51;;;;;;;10.93;7.60;;;;;;;3.27;100.00;97066.59;4994503;28;20194;-56
2021/12/17 05:23:22;;;;;;;10.10;7.20;;;;;;;3.24;100.00;97078.81;4976941;28;20235;-56
2021/12/17 05:25:48;;;;;;;12.13;7.97;;;;;;;3.23;100.00;97068.34;4976909;28;20198;-56
2021/12/17 05:28:14;;;;;;;10.63;8.17;;;;;;;3.19;100.00;97064.69;4977243;28;20188;-58
2021/12/17 05:30:45;;;;;;;10.43;7.77;;;;;;;3.16;100.00;97066.13;4976906;28;20527;-57
2021/12/17 05:33:11;;;;;;;11.23;7.77;;;;;;;3.16;100.00;97076.09;4977417;28;20226;-48
2021/12/17 05:35:36;;;;;;;11.80;8.13;;;;;;;3.20;100.00;97075.16;4977036;28;20543;-61
2021/12/17 05:38:02;;;;;;;10.13;7.53;;;;;;;3.20;100.00;97080.56;4977022;28;20199;-61
2021/12/17 05:40:27;;;;;;;9.90;7.73;;;;;;;3.21;100.00;97084.06;4976627;28;20237;-62
2021/12/17 05:42:56;;;;;;;9.50;7.20;;;;;;;3.16;100.00;97079.59;4976967;28;20218;-62
2021/12/17 05:45:33;;;;;;;10.43;7.10;;;;;;;3.16;100.00;97082.31;4977402;28;20286;-62
2021/12/17 05:48:07;;;;;;;10.73;6.60;;;;;;;3.17;100.00;97083.88;4977265;28;20199;-61
2021/12/17 05:50:34;;;;;;;11.27;7.40;;;;;;;3.19;100.00;97097.88;4977120;28;20316;-52
2021/12/17 05:53:00;;;;;;;10.57;7.43;;;;;;;3.24;100.00;97111.22;4976800;28;20210;-59
2021/12/17 05:55:26;;;;;;;9.20;7.00;;;;;;;3.26;100.00;97114.41;4976542;28;20283;-65
2021/12/17 05:57:52;;;;;;;9.57;7.00;;;;;;;3.28;100.00;97116.78;4976605;28;20188;-64
2021/12/17 06:00:19;;;;;;;9.33;6.87;;;;;;;3.25;100.00;97112.78;4976910;28;20201;-65
2021/12/17 06:02:45;;;;;;;8.87;6.40;;;;;;;3.22;100.00;97108.03;4977401;28;20188;-65
2021/12/17 06:05:10;;;;;;;9.13;6.97;;;;;;;3.17;100.00;97116.28;4976799;28;20200;-61
2021/12/17 06:07:35;;;;;;;9.43;6.50;;;;;;;3.12;100.00;97119.13;4976343;28;20188;-65
2021/12/17 06:10:04;;;;;;;13.00;7.63;;;;;;;3.08;100.00;97122.75;4976782;28;20183;-60
2021/12/17 06:12:29;;;;;;;7.13;5.67;;;;;;;3.01;100.00;97136.69;4976667;28;20270;-62
2021/12/17 06:14:54;;;;;;;10.37;6.87;;;;;;;2.95;100.00;97135.25;4980134;28;20218;-61
2021/12/17 06:17:20;;;;;;;8.70;6.60;;;;;;;2.90;100.00;97143.47;4979991;28;20189;-62
2021/12/17 06:19:46;;;;;;;9.93;7.60;;;;;;;2.89;100.00;97139.19;4979586;28;20179;-61
2021/12/17 06:22:12;;;;;;;9.90;6.60;;;;;;;2.84;100.00;97139.31;4980314;28;20191;-61
2021/12/17 06:24:37;;;;;;;7.90;6.17;;;;;;;2.81;100.00;97145.31;4980148;28;20188;-62
2021/12/17 06:27:03;;;;;;;9.87;6.97;;;;;;;2.75;100.00;97140.38;4979785;28;20187;-63
2021/12/17 06:29:28;;;;;;;9.00;6.60;;;;;;;2.71;100.00;97151.00;4979820;28;20321;-61
2021/12/17 06:31:54;;;;;;;10.23;7.07;;;;;;;2.68;100.00;97146.22;4979692;28;20338;-61
2021/12/17 06:34:19;;;;;;;7.93;6.27;;;;;;;2.63;100.00;97143.66;4980099;28;20209;-61
2021/12/17 06:36:45;;;;;;;9.77;7.00;;;;;;;2.57;100.00;97139.50;4979418;28;20612;-61
2021/12/17 06:39:10;;;;;;;9.03;6.30;;;;;;;2.52;100.00;97147.69;4979581;28;20184;-61
2021/12/17 06:41:37;;;;;;;8.53;7.03;;;;;;;2.49;100.00;97158.31;4979290;28;20191;-61
2021/12/17 06:44:03;;;;;;;11.30;7.30;;;;;;;2.45;100.00;97152.72;4979373;28;20242;-61
2021/12/17 06:46:46;;;;;;;8.80;6.90;;;;;;;2.39;100.00;97153.97;4979122;28;20195;-62
2021/12/17 06:49:46;;;;;;;9.17;7.17;;;;;;;2.38;100.00;97156.97;4979786;28;20191;-64
2021/12/17 07:21:19;;;;;;;10.73;7.90;;;;;;;3.42;100.00;97118.25;4996330;28;20275;-62
2021/12/17 07:34:02;;;;;;;13.80;7.87;;;;;;;5.30;100.00;97105.19;4996328;28;20225;-49
2021/12/17 07:36:37;;;;;;;11.20;8.67;;;;;;;5.73;100.00;97115.75;4979059;28;20216;-53
2021/12/17 07:39:04;;;;;;;10.47;7.40;;;;;;;6.05;100.00;97132.13;4978802;28;20214;-53
2021/12/17 07:41:29;;;;;;;8.77;7.33;;;;;;;6.42;100.00;97149.38;4978700;28;20196;-52
2021/12/17 07:43:58;;;;;;;20.97;14.93;;;;;;;6.55;100.00;97161.84;4978398;28;20211;-62
2021/12/17 07:46:24;;;;;;;9.23;7.50;;;;;;;6.40;100.00;97181.44;4978332;28;20279;-63
2021/12/17 07:48:51;;;;;;;10.37;7.90;;;;;;;6.89;100.00;97175.09;4978146;28;20259;-63
2021/12/17 07:51:18;;;;;;;11.00;8.43;;;;;;;7.06;100.00;97182.25;4978023;28;20220;-63
2021/12/17 07:53:44;;;;;;;10.13;8.07;;;;;;;7.34;100.00;97192.16;4978520;28;20189;-61
2021/12/17 07:56:12;;;;;;;10.10;8.50;;;;;;;7.79;100.00;97187.41;4995344;28;20191;-61
2021/12/17 07:58:38;;;;;;;10.63;7.23;;;;;;;8.13;100.00;97192.38;4978300;28;20202;-65
2021/12/17 08:01:05;;;;;;;9.20;8.20;;;;;;;8.45;100.00;97190.63;4978022;28;20227;-45
2021/12/17 08:03:30;;;;;;;10.73;7.63;;;;;;;8.51;100.00;97187.31;4978258;28;20192;-62
2021/12/17 08:05:56;;;;;;;9.97;7.70;;;;;;;8.71;100.00;97178.13;4978272;28;20195;-60
2021/12/17 08:08:21;;;;;;;9.97;7.67;;;;;;;8.77;100.00;97187.66;4977653;28;20249;-65
2021/12/17 08:10:50;;;;;;;9.30;7.17;;;;;;;8.29;100.00;97190.53;4977702;28;20227;-63
2021/12/17 08:13:26;;;;;;;9.67;7.13;;;;;;;8.45;100.00;97194.13;4977939;28;20262;-63
2021/12/17 08:16:27;;;;;;;12.73;7.47;;;;;;;8.03;100.00;97184.69;4978055;28;20195;-63
2021/12/17 08:29:26;;;;;;;10.53;7.83;;;;;;;9.00;100.00;97177.78;4994740;28;20205;-59
2021/12/17 08:31:52;;;;;;;12.40;8.47;;;;;;;9.43;100.00;97169.56;4978305;28;20230;-59
2021/12/17 08:34:17;;;;;;;15.73;8.20;;;;;;;9.64;100.00;97167.34;4977505;28;20561;-59
2021/12/17 08:36:42;;;;;;;11.17;8.33;;;;;;;9.74;100.00;97177.75;4976501;28;20259;-62
2021/12/17 08:39:08;;;;;;;21.53;15.87;;;;;;;9.86;100.00;97176.81;4977240;28;20190;-63
2021/12/17 08:41:33;;;;;;;10.97;8.03;;;;;;;9.16;100.00;97175.88;4977445;28;20258;-63
2021/12/17 08:43:59;;;;;;;9.90;8.37;;;;;;;9.39;100.00;97179.59;4977036;28;20222;-66
2021/12/17 08:46:25;;;;;;;9.17;8.03;;;;;;;9.59;100.00;97175.00;4977541;28;20252;-61
2021/12/17 08:48:50;;;;;;;9.90;8.33;;;;;;;9.97;100.00;97177.88;4977229;28;20225;-61
2021/12/17 08:51:16;;;;;;;9.30;8.40;;;;;;;10.03;100.00;97171.75;4977371;28;20279;-71
2021/12/17 08:53:41;;;;;;;10.77;8.40;;;;;;;9.82;100.00;97174.03;4976963;28;20281;-71
2021/12/17 08:56:07;;;;;;;11.47;9.13;;;;;;;10.01;100.00;97179.53;4977126;28;20194;-55
2021/12/17 08:58:34;;;;;;;9.33;7.83;;;;;;;9.88;100.00;97186.22;4976809;28;20189;-59
2021/12/17 09:01:02;;;;;;;9.17;8.10;;;;;;;10.08;100.00;97185.19;4977519;28;20186;-60
2021/12/17 09:03:28;;;;;;;9.43;7.27;;;;;;;8.98;100.00;97180.06;4977312;28;20183;-59
2021/12/17 09:05:53;;;;;;;11.80;8.93;;;;;;;9.45;100.00;97178.19;4977690;28;20203;-58
2021/12/17 09:08:20;;;;;;;8.90;7.63;;;;;;;9.66;100.00;97173.22;4977183;28;20198;-58
2021/12/17 09:10:47;;;;;;;8.47;7.60;;;;;;;9.51;100.00;97179.50;4977413;28;20215;-57
2021/12/17 09:13:13;;;;;;;8.97;8.07;;;;;;;9.81;100.00;97186.06;4976928;28;20187;-63
2021/12/17 09:15:39;;;;;;;9.23;7.73;;;;;;;10.31;100.00;97177.13;4977001;28;20630;-60
2021/12/17 09:18:04;;;;;;;8.07;7.23;;;;;;;10.02;100.00;97180.34;4976723;28;20184;-64
2021/12/17 09:20:30;;;;;;;12.17;7.80;;;;;;;9.98;100.00;97174.78;4976890;28;20193;-65
2021/12/17 09:22:55;;;;;;;8.03;7.23;;;;;;;10.23;100.00;97169.13;4977040;28;20184;-63
2021/12/17 09:25:20;;;;;;;8.30;7.40;;;;;;;10.21;100.00;97166.75;4976955;28;20191;-64
2021/12/17 09:27:46;;;;;;;9.03;8.13;;;;;;;9.88;100.00;97169.88;4976725;28;20186;-63
2021/12/17 09:30:13;;;;;;;8.73;7.80;;;;;;;10.19;100.00;97168.25;4976908;28;20195;-64
2021/12/17 09:32:39;;;;;;;8.57;7.67;;;;;;;10.52;100.00;97166.63;4977322;28;20237;-53
2021/12/17 09:35:07;;;;;;;7.23;6.37;;;;;;;10.43;100.00;97163.34;4976968;28;20250;-69
2021/12/17 09:37:32;;;;;;;8.30;6.10;;;;;;;9.99;100.00;97164.66;4977273;28;20191;-69
2021/12/17 09:39:57;;;;;;;7.60;6.47;;;;;;;9.38;100.00;97167.09;4976765;28;20200;-67
2021/12/17 09:42:24;;;;;;;7.10;6.40;;;;;;;9.15;100.00;97177.00;4977021;28;20249;-68
2021/12/17 09:44:50;;;;;;;6.67;6.07;;;;;;;9.13;100.00;97170.31;4976934;28;20273;-67
2021/12/17 09:47:16;;;;;;;8.57;7.67;;;;;;;9.30;100.00;97159.09;4976924;28;20276;-67
2021/12/17 09:49:42;;;;;;;8.30;6.37;;;;;;;9.35;100.00;97161.53;4980496;28;20196;-54
2021/12/17 09:52:07;;;;;;;7.87;6.70;;;;;;;9.25;100.00;97168.31;4980532;28;20226;-60
2021/12/17 09:54:33;;;;;;;8.17;6.50;;;;;;;9.80;100.00;97159.94;4980144;28;20201;-48
2021/12/17 09:56:58;;;;;;;9.47;6.57;;;;;;;9.67;100.00;97163.94;4980511;28;20194;-45
2021/12/17 09:59:23;;;;;;;7.50;6.77;;;;;;;10.21;100.00;97160.50;4980217;28;20193;-47
2021/12/17 10:01:49;;;;;;;6.93;6.23;;;;;;;9.64;100.00;97159.19;4980493;28;20213;-54
2021/12/17 10:04:24;;;;;;;7.10;6.40;;;;;;;9.81;100.00;97155.28;4980646;28;20250;-46
2021/12/17 10:06:49;;;;;;;6.73;5.87;;;;;;;9.71;100.00;97164.81;4980463;28;20191;-52
2021/12/17 10:09:16;;;;;;;8.90;6.10;;;;;;;9.91;100.00;97150.06;4980441;28;20198;-63
2021/12/17 10:12:02;;;;;;;8.03;6.27;;;;;;;10.03;100.00;97149.94;4980496;28;20225;-58
2021/12/17 10:14:28;;;;;;;7.07;6.13;;;;;;;9.81;100.00;97145.13;4979989;28;20198;-55
2021/12/17 10:17:06;;;;;;;7.30;6.03;;;;;;;9.98;100.00;97142.03;4980062;28;20192;-55
2021/12/17 10:20:05;;;;;;;7.27;6.00;;;;;;;10.02;100.00;97131.22;4979499;28;20186;-55
2021/12/17 10:22:31;;;;;;;7.30;6.57;;;;;;;9.47;100.00;97134.97;4986289;28;20215;-54
2021/12/17 10:25:09;;;;;;;9.90;6.83;;;;;;;9.96;100.00;97133.44;4979742;28;20186;-54
2021/12/17 10:27:37;;;;;;;7.97;6.90;;;;;;;9.16;100.00;97126.81;4979445;28;20196;-58
2021/12/17 10:30:14;;;;;;;7.17;6.47;;;;;;;9.36;100.00;97124.97;4979458;28;20191;-57
2021/12/17 10:32:42;;;;;;;7.37;6.57;;;;;;;9.30;100.00;97121.72;4979808;28;20184;-58
2021/12/17 10:35:25;;;;;;;8.30;7.13;;;;;;;9.18;100.00;97121.78;4979591;28;20251;-57
2021/12/17 10:37:56;;;;;;;10.00;7.20;;;;;;;8.70;100.00;97124.81;4980553;28;20185;-56
2021/12/17 10:40:22;;;;;;;9.87;7.77;;;;;;;7.96;100.00;97126.53;4980159;28;20192;-57
2021/12/17 10:43:01;;;;;;;8.10;6.93;;;;;;;7.32;100.00;97129.19;4979307;28;20195;-57
2021/12/17 10:45:30;;;;;;;9.40;7.40;;;;;;;7.41;100.00;97132.59;4980009;28;20204;-49
2021/12/17 10:51:17;;;;;;;7.70;6.73;;;;;;;6.68;100.00;97137.16;4997236;28;20258;-47
2021/12/17 10:53:53;;;;;;;10.70;7.83;;;;;;;6.59;100.00;97141.03;4979641;28;20196;-46
2021/12/17 10:56:22;;;;;;;8.77;7.37;;;;;;;6.48;100.00;97142.59;4979764;28;20194;-50
2021/12/17 10:59:00;;;;;;;9.93;8.07;;;;;;;6.01;100.00;97138.56;4979104;28;20206;-47
2021/12/17 11:01:49;;;;;;;9.07;7.43;;;;;;;6.13;100.00;97136.66;4978978;28;20189;-47
2021/12/17 11:04:14;;;;;;;11.27;8.00;;;;;;;6.18;100.00;97132.97;4979719;28;20198;-49
2021/12/17 11:06:48;;;;;;;9.97;8.03;;;;;;;6.18;100.00;97132.97;4979129;28;20206;-57
2021/12/17 11:09:31;;;;;;;9.67;7.97;;;;;;;6.23;100.00;97133.56;4979418;28;20202;-57
2021/12/17 11:12:01;;;;;;;12.03;8.60;;;;;;;6.23;100.00;97140.94;4978867;28;20304;-57
2021/12/17 11:14:27;;;;;;;10.73;8.13;;;;;;;6.24;100.00;97135.13;4979173;28;20225;-58
2021/12/17 11:16:52;;;;;;;11.50;8.37;;;;;;;6.22;100.00;97128.47;4978940;28;20359;-58
2021/12/17 11:19:17;;;;;;;11.90;8.57;;;;;;;6.13;100.00;97125.81;4979030;28;20218;-58
2021/12/17 11:21:43;;;;;;;14.23;8.57;;;;;;;6.12;100.00;97123.47;4978740;28;20216;-56
2021/12/17 11:24:09;;;;;;;10.70;8.70;;;;;;;6.02;100.00;97126.56;4978798;28;20186;-52
2021/12/17 11:26:34;;;;;;;10.50;8.40;;;;;;;5.93;100.00;97115.00;4979008;28;20200;-64
2021/12/17 11:29:03;;;;;;;10.83;8.43;;;;;;;6.01;100.00;97119.56;4978885;28;20187;-62
2021/12/17 11:31:31;;;;;;;11.90;8.60;;;;;;;5.86;100.00;97107.41;4978744;28;20219;-62
2021/12/17 11:33:59;;;;;;;11.97;8.87;;;;;;;6.04;100.00;97099.91;4978621;28;20269;-63
2021/12/17 11:36:24;;;;;;;14.07;8.23;;;;;;;6.06;100.00;97097.66;4978604;28;20192;-63
2021/12/17 11:39:05;;;;;;;11.43;8.23;;;;;;;6.02;100.00;97094.03;4978510;28;20211;-63
2021/12/17 11:42:00;;;;;;;10.10;8.13;;;;;;;6.11;100.00;97094.75;4978209;28;20223;-67
2021/12/17 11:44:39;;;;;;;11.53;8.43;;;;;;;6.21;100.00;97100.56;4978880;28;20188;-62
2021/12/17 11:47:07;;;;;;;11.47;8.30;;;;;;;6.19;100.00;97102.81;4978534;28;20246;-59
2021/12/17 11:49:45;;;;;;;11.33;7.83;;;;;;;6.21;100.00;97099.78;4978144;28;20678;-61
2021/12/17 11:52:11;;;;;;;10.73;8.20;;;;;;;6.17;100.00;97109.69;4978250;28;20226;-59
2021/12/17 11:54:36;;;;;;;10.83;7.50;;;;;;;6.27;100.00;97114.72;4978004;28;20199;-59
2021/12/17 11:57:05;;;;;;;11.67;8.53;;;;;;;6.19;100.00;97104.72;4978475;28;20211;-60
2021/12/17 11:59:37;;;;;;;10.60;7.37;;;;;;;6.18;100.00;97095.00;4977705;28;20250;-49
2021/12/17 12:02:22;;;;;;;11.90;8.20;;;;;;;6.17;100.00;97101.56;4978137;28;20191;-61
2021/12/17 12:04:47;;;;;;;11.53;7.90;;;;;;;6.30;100.00;97093.13;4978328;28;20185;-59
2021/12/17 12:07:12;;;;;;;10.30;7.17;;;;;;;6.25;100.00;97089.84;4977938;28;20273;-59
2021/12/17 12:10:15;;;;;;;10.53;7.77;;;;;;;6.18;100.00;97079.53;4978059;28;20189;-60
2021/12/17 12:12:46;;;;;;;13.57;8.33;;;;;;;6.21;100.00;97078.06;4919392;29;20590;-60
2021/12/17 12:15:22;;;;;;;10.07;7.97;;;;;;;6.06;100.00;97070.56;4968746;28;20254;-60
2021/12/17 12:17:56;;;;;;;12.00;8.50;;;;;;;6.21;100.00;97069.94;4977477;28;20196;-52
2021/12/17 12:20:47;;;;;;;10.93;7.97;;;;;;;6.01;100.00;97068.84;4977435;28;20194;-46
2021/12/17 12:23:31;;;;;;;11.67;7.83;;;;;;;6.10;100.00;97071.47;4978341;28;20197;-49
2021/12/17 12:26:07;;;;;;;13.00;7.63;;;;;;;6.03;100.00;97082.06;4994976;28;20275;-53
2021/12/17 12:28:45;;;;;;;11.70;8.40;;;;;;;5.92;100.00;97080.88;4977956;28;20210;-51
2021/12/17 12:31:13;;;;;;;10.40;8.03;;;;;;;5.94;100.00;97084.06;4977370;28;20219;-49
2021/12/17 12:34:21;;;;;;;10.77;8.00;;;;;;;5.83;100.00;97088.31;4976933;28;20199;-49
2021/12/17 12:37:08;;;;;;;10.70;8.33;;;;;;;5.92;100.00;97087.09;4919199;29;20290;-59
2021/12/17 12:39:41;;;;;;;10.90;7.93;;;;;;;5.71;100.00;97090.88;4976262;28;20291;-62
2021/12/17 12:42:11;;;;;;;11.13;8.83;;;;;;;5.62;100.00;97098.31;4977968;28;20249;-61
2021/12/17 12:44:49;;;;;;;12.07;8.50;;;;;;;5.45;100.00;97092.97;4977161;28;20545;-63
2021/12/17 12:47:34;;;;;;;12.03;8.47;;;;;;;5.51;100.00;97092.50;4977291;28;20258;-62
2021/12/17 12:50:03;;;;;;;10.47;7.83;;;;;;;5.54;100.00;97091.81;4976974;28;20192;-62
2021/12/17 12:52:31;;;;;;;9.83;7.60;;;;;;;5.19;100.00;97090.44;4977026;28;20212;-62
2021/12/17 12:55:13;;;;;;;10.20;8.00;;;;;;;5.01;100.00;97088.13;4994517;28;20188;-60
2021/12/17 12:57:42;;;;;;;13.10;8.30;;;;;;;5.02;100.00;97089.72;4977151;28;20191;-57
2021/12/17 13:00:11;;;;;;;9.90;7.97;;;;;;;5.04;100.00;97092.91;4976808;28;20195;-55
2021/12/17 13:02:37;;;;;;;9.67;7.67;;;;;;;4.99;100.00;97095.78;4976894;28;20291;-57
2021/12/17 13:05:06;;;;;;;9.63;7.93;;;;;;;5.04;100.00;97093.69;4977204;28;20226;-56
2021/12/17 13:07:47;;;;;;;10.20;8.17;;;;;;;5.18;100.00;97088.06;4977488;28;20184;-56
2021/12/17 13:10:28;;;;;;;9.53;6.97;;;;;;;5.31;100.00;97095.94;4977002;28;20245;-57
2021/12/17 13:13:02;;;;;;;9.80;7.27;;;;;;;5.42;100.00;97093.63;4976998;28;20286;-56
2021/12/17 13:23:24;;;;;;;7.90;7.10;;;;;;;5.17;100.00;97097.31;4996091;28;20179;-61
2021/12/17 13:26:10;;;;;;;9.20;7.20;;;;;;;5.21;100.00;97092.81;4981209;28;20188;-61
2021/12/17 13:29:18;;;;;;;7.90;7.10;;;;;;;5.15;100.00;97096.81;4980853;28;20187;-61
2021/12/17 13:31:48;;;;;;;8.53;7.33;;;;;;;5.08;100.00;97096.53;4973014;28;20243;-51
2021/12/17 13:34:36;;;;;;;9.77;7.60;;;;;;;5.01;100.00;97104.38;4980692;28;20701;-62
2021/12/17 13:37:11;;;;;;;9.13;7.73;;;;;;;4.90;100.00;97100.44;4980704;28;20197;-63
2021/12/17 13:39:39;;;;;;;9.90;8.63;;;;;;;4.82;100.00;97090.44;4981131;28;20194;-62
2021/12/17 13:42:06;;;;;;;11.00;8.40;;;;;;;4.71;100.00;97086.50;4980921;28;20192;-64
2021/12/17 13:44:52;;;;;;;9.83;8.43;;;;;;;4.80;100.00;97087.25;4980971;28;20192;-63
2021/12/17 13:47:23;;;;;;;9.83;8.47;;;;;;;4.96;100.00;97107.25;4980939;28;20196;-64
2021/12/17 13:50:12;;;;;;;10.77;9.07;;;;;;;4.85;100.00;97111.44;4981176;28;20195;-49
2021/12/17 13:52:55;;;;;;;10.30;8.70;;;;;;;4.94;100.00;97120.31;4980137;28;20739;-61
2021/12/17 13:55:37;;;;;;;11.43;9.67;;;;;;;4.84;100.00;97115.28;4981116;28;20192;-60
2021/12/17 13:58:15;;;;;;;13.27;9.90;;;;;;;4.81;100.00;97111.28;4980500;28;20191;-60
2021/12/17 14:00:46;;;;;;;13.10;10.17;;;;;;;4.80;100.00;97112.41;4980580;28;20206;-60
2021/12/17 14:03:14;;;;;;;11.50;10.03;;;;;;;4.76;100.00;97113.38;4980198;28;20250;-60
2021/12/17 14:05:44;;;;;;;14.37;10.53;;;;;;;4.80;100.00;97125.13;4980045;28;20196;-61
2021/12/17 14:08:12;;;;;;;13.47;10.67;;;;;;;4.85;100.00;97124.97;4980133;28;20242;-49
2021/12/17 14:10:39;;;;;;;12.73;10.70;;;;;;;4.91;100.00;97123.66;4980193;28;20679;-57
2021/12/17 14:13:14;;;;;;;12.47;10.10;;;;;;;4.91;100.00;97131.78;4980179;28;20222;-55
2021/12/17 14:15:41;;;;;;;13.57;10.70;;;;;;;4.94;100.00;97120.31;4979975;28;20223;-58
2021/12/17 14:18:08;;;;;;;13.00;9.43;;;;;;;4.96;100.00;97118.88;4980111;28;20192;-55
2021/12/17 14:20:49;;;;;;;11.83;10.03;;;;;;;4.92;100.00;97127.97;4979574;28;20196;-56
2021/12/17 14:23:20;;;;;;;11.97;9.83;;;;;;;4.89;100.00;97129.44;4980438;28;20268;-54
2021/12/17 14:25:52;;;;;;;12.50;10.13;;;;;;;4.97;100.00;97120.47;4980009;28;20192;-46
2021/12/17 14:28:23;;;;;;;11.30;9.80;;;;;;;4.94;100.00;97123.03;4979626;28;20195;-65
2021/12/17 14:30:58;;;;;;;12.73;9.33;;;;;;;4.96;100.00;97126.22;4979697;28;20215;-60
2021/12/17 14:33:35;;;;;;;12.03;9.33;;;;;;;4.94;100.00;97125.72;4980142;28;20199;-60
2021/12/17 14:36:04;;;;;;;14.00;10.10;;;;;;;4.92;100.00;97123.34;4979556;28;20275;-60
2021/12/17 14:38:47;;;;;;;15.33;10.10;;;;;;;4.88;100.00;97127.03;4979815;28;20206;-59
2021/12/17 14:41:22;;;;;;;14.83;10.80;;;;;;;4.94;100.00;97114.91;4980051;28;20218;-60
2021/12/17 14:43:55;;;;;;;14.63;10.93;;;;;;;4.94;100.00;97121.13;4979891;28;20204;-60
2021/12/17 14:46:28;;;;;;;15.23;10.73;;;;;;;4.99;100.00;97129.06;4996793;28;20199;-67
2021/12/17 14:58:47;;;;;;;15.43;11.77;;;;;;;4.90;100.00;97108.56;4997187;28;20200;-56